sensor_id;sensor_type;location;lat;lon;timestamp;temperature;humidity
73572;DHT22;61854;48.510;-2.770;2023-02-28T00:00:33;5.80;76.10
73572;DHT22;61854;48.510;-2.770;2023-02-28T00:03:00;5.80;76.10
73572;DHT22;61854;48.510;-2.770;2023-02-28T00:05:27;5.80;76.20
73572;DHT22;61854;48.510;-2.770;2023-02-28T00:07:53;5.80;76.40
73572;DHT22;61854;48.510;-2.770;2023-02-28T00:10:23;5.70;76.30
73572;DHT22;61854;48.510;-2.770;2023-02-28T00:12:49;5.70;76.10
73572;DHT22;61854;48.510;-2.770;2023-02-28T00:15:16;5.70;76.10
73572;DHT22;61854;48.510;-2.770;2023-02-28T00:17:42;5.70;76.30
73572;DHT22;61854;48.510;-2.770;2023-02-28T00:20:09;5.70;76.40
73572;DHT22;61854;48.510;-2.770;2023-02-28T00:22:39;5.70;76.50
73572;DHT22;61854;48.510;-2.770;2023-02-28T00:25:06;5.70;76.40
73572;DHT22;61854;48.510;-2.770;2023-02-28T00:27:37;5.70;75.80
73572;DHT22;61854;48.510;-2.770;2023-02-28T00:30:03;5.70;75.30
73572;DHT22;61854;48.510;-2.770;2023-02-28T00:32:29;5.70;74.80
73572;DHT22;61854;48.510;-2.770;2023-02-28T00:34:55;5.70;74.70
73572;DHT22;61854;48.510;-2.770;2023-02-28T00:37:21;5.70;74.70
73572;DHT22;61854;48.510;-2.770;2023-02-28T00:39:47;5.70;74.90
73572;DHT22;61854;48.510;-2.770;2023-02-28T00:42:12;5.70;74.50
73572;DHT22;61854;48.510;-2.770;2023-02-28T00:44:38;5.70;74.50
73572;DHT22;61854;48.510;-2.770;2023-02-28T00:47:04;5.70;74.50
73572;DHT22;61854;48.510;-2.770;2023-02-28T00:49:30;5.70;74.50
73572;DHT22;61854;48.510;-2.770;2023-02-28T00:51:56;5.70;74.50
73572;DHT22;61854;48.510;-2.770;2023-02-28T00:54:23;5.70;74.50
73572;DHT22;61854;48.510;-2.770;2023-02-28T00:56:49;5.60;74.60
73572;DHT22;61854;48.510;-2.770;2023-02-28T00:59:16;5.60;74.90
73572;DHT22;61854;48.510;-2.770;2023-02-28T01:01:43;5.50;75.10
73572;DHT22;61854;48.510;-2.770;2023-02-28T01:04:09;5.50;75.50
73572;DHT22;61854;48.510;-2.770;2023-02-28T01:06:34;5.40;75.70
73572;DHT22;61854;48.510;-2.770;2023-02-28T01:09:04;5.30;75.90
73572;DHT22;61854;48.510;-2.770;2023-02-28T01:11:30;5.30;76.20
73572;DHT22;61854;48.510;-2.770;2023-02-28T01:13:56;5.30;76.40
73572;DHT22;61854;48.510;-2.770;2023-02-28T01:16:22;5.20;76.60
73572;DHT22;61854;48.510;-2.770;2023-02-28T01:18:48;5.20;76.80
73572;DHT22;61854;48.510;-2.770;2023-02-28T01:21:17;5.20;77.00
73572;DHT22;61854;48.510;-2.770;2023-02-28T01:23:43;5.20;77.10
73572;DHT22;61854;48.510;-2.770;2023-02-28T01:26:13;5.20;77.10
73572;DHT22;61854;48.510;-2.770;2023-02-28T01:28:39;5.20;77.20
73572;DHT22;61854;48.510;-2.770;2023-02-28T01:31:05;5.20;77.30
73572;DHT22;61854;48.510;-2.770;2023-02-28T01:33:31;5.10;77.50
73572;DHT22;61854;48.510;-2.770;2023-02-28T01:36:02;5.10;77.90
73572;DHT22;61854;48.510;-2.770;2023-02-28T01:38:29;5.10;78.30
73572;DHT22;61854;48.510;-2.770;2023-02-28T01:40:54;5.10;78.50
73572;DHT22;61854;48.510;-2.770;2023-02-28T01:43:26;5.10;78.60
73572;DHT22;61854;48.510;-2.770;2023-02-28T01:45:53;5.10;78.80
73572;DHT22;61854;48.510;-2.770;2023-02-28T01:48:24;5.20;78.70
73572;DHT22;61854;48.510;-2.770;2023-02-28T01:50:52;5.20;78.50
73572;DHT22;61854;48.510;-2.770;2023-02-28T01:53:22;5.20;78.40
73572;DHT22;61854;48.510;-2.770;2023-02-28T01:55:51;5.20;78.30
73572;DHT22;61854;48.510;-2.770;2023-02-28T01:58:19;5.20;78.30
73572;DHT22;61854;48.510;-2.770;2023-02-28T02:00:45;5.20;78.40
73572;DHT22;61854;48.510;-2.770;2023-02-28T02:03:14;5.20;78.50
73572;DHT22;61854;48.510;-2.770;2023-02-28T02:05:41;5.10;78.50
73572;DHT22;61854;48.510;-2.770;2023-02-28T02:08:10;5.10;78.80
73572;DHT22;61854;48.510;-2.770;2023-02-28T02:10:43;5.00;79.00
73572;DHT22;61854;48.510;-2.770;2023-02-28T02:13:27;5.00;79.20
73572;DHT22;61854;48.510;-2.770;2023-02-28T02:16:23;5.00;79.40
73572;DHT22;61854;48.510;-2.770;2023-02-28T02:24:26;4.90;80.00
73572;DHT22;61854;48.510;-2.770;2023-02-28T02:27:18;4.90;80.00
73572;DHT22;61854;48.510;-2.770;2023-02-28T02:35:52;5.00;79.70
73572;DHT22;61854;48.510;-2.770;2023-02-28T02:40:59;5.00;79.30
73572;DHT22;61854;48.510;-2.770;2023-02-28T02:43:44;5.10;79.30
73572;DHT22;61854;48.510;-2.770;2023-02-28T02:46:19;5.10;79.30
73572;DHT22;61854;48.510;-2.770;2023-02-28T02:48:46;5.10;79.10
73572;DHT22;61854;48.510;-2.770;2023-02-28T02:51:16;5.10;78.90
73572;DHT22;61854;48.510;-2.770;2023-02-28T02:53:52;5.20;78.80
73572;DHT22;61854;48.510;-2.770;2023-02-28T02:56:22;5.20;78.50
73572;DHT22;61854;48.510;-2.770;2023-02-28T02:58:50;5.20;78.20
73572;DHT22;61854;48.510;-2.770;2023-02-28T03:01:22;5.20;78.10
73572;DHT22;61854;48.510;-2.770;2023-02-28T03:04:23;5.20;77.60
73572;DHT22;61854;48.510;-2.770;2023-02-28T03:06:51;5.20;77.20
73572;DHT22;61854;48.510;-2.770;2023-02-28T03:09:24;5.20;76.50
73572;DHT22;61854;48.510;-2.770;2023-02-28T03:11:52;5.20;76.10
73572;DHT22;61854;48.510;-2.770;2023-02-28T03:16:59;5.20;75.70
73572;DHT22;61854;48.510;-2.770;2023-02-28T03:19:55;5.20;75.50
73572;DHT22;61854;48.510;-2.770;2023-02-28T03:25:23;5.20;75.50
73572;DHT22;61854;48.510;-2.770;2023-02-28T03:28:13;5.20;75.60
73572;DHT22;61854;48.510;-2.770;2023-02-28T03:30:49;5.20;75.20
73572;DHT22;61854;48.510;-2.770;2023-02-28T03:33:44;5.20;75.20
73572;DHT22;61854;48.510;-2.770;2023-02-28T03:36:17;5.20;74.70
73572;DHT22;61854;48.510;-2.770;2023-02-28T03:41:35;5.20;74.20
73572;DHT22;61854;48.510;-2.770;2023-02-28T03:44:14;5.20;74.50
73572;DHT22;61854;48.510;-2.770;2023-02-28T03:46:53;5.10;74.60
73572;DHT22;61854;48.510;-2.770;2023-02-28T03:49:25;5.20;74.70
73572;DHT22;61854;48.510;-2.770;2023-02-28T03:51:53;5.20;74.50
73572;DHT22;61854;48.510;-2.770;2023-02-28T03:54:35;5.10;74.50
73572;DHT22;61854;48.510;-2.770;2023-02-28T03:57:12;5.10;74.50
73572;DHT22;61854;48.510;-2.770;2023-02-28T03:59:44;5.10;74.80
73572;DHT22;61854;48.510;-2.770;2023-02-28T04:02:12;5.10;74.90
73572;DHT22;61854;48.510;-2.770;2023-02-28T04:04:38;5.10;74.50
73572;DHT22;61854;48.510;-2.770;2023-02-28T04:07:08;5.10;74.50
73572;DHT22;61854;48.510;-2.770;2023-02-28T04:09:34;5.00;74.70
73572;DHT22;61854;48.510;-2.770;2023-02-28T04:12:01;5.00;74.90
73572;DHT22;61854;48.510;-2.770;2023-02-28T04:14:27;5.00;75.00
73572;DHT22;61854;48.510;-2.770;2023-02-28T04:16:53;5.00;75.00
73572;DHT22;61854;48.510;-2.770;2023-02-28T04:19:19;5.00;75.00
73572;DHT22;61854;48.510;-2.770;2023-02-28T04:21:54;5.00;75.00
73572;DHT22;61854;48.510;-2.770;2023-02-28T04:24:25;5.10;75.10
73572;DHT22;61854;48.510;-2.770;2023-02-28T04:26:54;5.00;74.90
73572;DHT22;61854;48.510;-2.770;2023-02-28T04:29:25;5.00;74.80
73572;DHT22;61854;48.510;-2.770;2023-02-28T04:31:51;5.10;74.80
73572;DHT22;61854;48.510;-2.770;2023-02-28T04:34:19;5.10;74.70
73572;DHT22;61854;48.510;-2.770;2023-02-28T04:36:45;5.10;74.80
73572;DHT22;61854;48.510;-2.770;2023-02-28T04:39:11;5.10;75.00
73572;DHT22;61854;48.510;-2.770;2023-02-28T04:41:37;5.10;74.90
73572;DHT22;61854;48.510;-2.770;2023-02-28T04:44:03;5.20;74.90
73572;DHT22;61854;48.510;-2.770;2023-02-28T04:46:29;5.20;75.10
73572;DHT22;61854;48.510;-2.770;2023-02-28T04:48:56;5.20;75.20
73572;DHT22;61854;48.510;-2.770;2023-02-28T04:51:21;5.20;75.20
73572;DHT22;61854;48.510;-2.770;2023-02-28T04:53:47;5.20;75.30
73572;DHT22;61854;48.510;-2.770;2023-02-28T04:56:16;5.20;75.40
73572;DHT22;61854;48.510;-2.770;2023-02-28T04:58:42;5.20;75.30
73572;DHT22;61854;48.510;-2.770;2023-02-28T05:01:23;5.20;75.50
73572;DHT22;61854;48.510;-2.770;2023-02-28T05:03:50;5.20;75.70
73572;DHT22;61854;48.510;-2.770;2023-02-28T05:06:17;5.10;75.70
73572;DHT22;61854;48.510;-2.770;2023-02-28T05:08:43;5.20;75.80
73572;DHT22;61854;48.510;-2.770;2023-02-28T05:11:17;5.10;76.00
73572;DHT22;61854;48.510;-2.770;2023-02-28T05:13:44;5.20;76.10
73572;DHT22;61854;48.510;-2.770;2023-02-28T05:16:10;5.10;76.10
73572;DHT22;61854;48.510;-2.770;2023-02-28T05:18:36;5.20;76.20
73572;DHT22;61854;48.510;-2.770;2023-02-28T05:21:01;5.10;76.00
73572;DHT22;61854;48.510;-2.770;2023-02-28T05:23:27;5.20;75.70
73572;DHT22;61854;48.510;-2.770;2023-02-28T05:25:53;5.10;75.50
73572;DHT22;61854;48.510;-2.770;2023-02-28T05:28:20;5.10;75.30
73572;DHT22;61854;48.510;-2.770;2023-02-28T05:30:46;5.10;75.30
73572;DHT22;61854;48.510;-2.770;2023-02-28T05:33:12;5.10;75.00
73572;DHT22;61854;48.510;-2.770;2023-02-28T05:35:41;5.10;74.80
73572;DHT22;61854;48.510;-2.770;2023-02-28T05:38:08;5.00;74.60
73572;DHT22;61854;48.510;-2.770;2023-02-28T05:40:34;5.00;74.60
73572;DHT22;61854;48.510;-2.770;2023-02-28T05:43:00;5.10;74.50
73572;DHT22;61854;48.510;-2.770;2023-02-28T05:45:29;5.00;74.10
73572;DHT22;61854;48.510;-2.770;2023-02-28T05:47:54;5.00;74.30
73572;DHT22;61854;48.510;-2.770;2023-02-28T05:50:20;5.10;74.20
73572;DHT22;61854;48.510;-2.770;2023-02-28T05:52:50;5.00;74.40
73572;DHT22;61854;48.510;-2.770;2023-02-28T05:55:16;5.10;74.50
73572;DHT22;61854;48.510;-2.770;2023-02-28T05:57:41;5.00;74.20
73572;DHT22;61854;48.510;-2.770;2023-02-28T06:00:08;5.10;74.30
73572;DHT22;61854;48.510;-2.770;2023-02-28T06:02:34;5.00;74.40
73572;DHT22;61854;48.510;-2.770;2023-02-28T06:05:00;5.00;74.10
73572;DHT22;61854;48.510;-2.770;2023-02-28T06:07:25;5.00;74.10
73572;DHT22;61854;48.510;-2.770;2023-02-28T06:09:51;5.10;75.40
73572;DHT22;61854;48.510;-2.770;2023-02-28T06:12:17;5.10;75.40
73572;DHT22;61854;48.510;-2.770;2023-02-28T06:14:43;5.10;76.40
73572;DHT22;61854;48.510;-2.770;2023-02-28T06:17:09;5.10;75.70
73572;DHT22;61854;48.510;-2.770;2023-02-28T06:19:37;5.10;75.30
73572;DHT22;61854;48.510;-2.770;2023-02-28T06:22:04;5.10;74.20
73572;DHT22;61854;48.510;-2.770;2023-02-28T06:24:30;5.10;74.00
73572;DHT22;61854;48.510;-2.770;2023-02-28T06:26:57;5.10;73.30
73572;DHT22;61854;48.510;-2.770;2023-02-28T06:29:25;5.00;72.20
73572;DHT22;61854;48.510;-2.770;2023-02-28T06:31:50;5.00;72.00
73572;DHT22;61854;48.510;-2.770;2023-02-28T06:34:16;4.90;72.10
73572;DHT22;61854;48.510;-2.770;2023-02-28T06:36:42;4.80;72.10
73572;DHT22;61854;48.510;-2.770;2023-02-28T06:39:08;4.80;72.30
73572;DHT22;61854;48.510;-2.770;2023-02-28T06:41:34;4.70;72.60
73572;DHT22;61854;48.510;-2.770;2023-02-28T06:44:04;4.70;72.70
73572;DHT22;61854;48.510;-2.770;2023-02-28T06:46:31;4.60;72.80
73572;DHT22;61854;48.510;-2.770;2023-02-28T06:48:57;4.60;73.00
73572;DHT22;61854;48.510;-2.770;2023-02-28T06:51:26;4.60;73.20
73572;DHT22;61854;48.510;-2.770;2023-02-28T06:53:52;4.60;73.20
73572;DHT22;61854;48.510;-2.770;2023-02-28T06:56:18;4.70;73.00
73572;DHT22;61854;48.510;-2.770;2023-02-28T06:58:48;4.70;72.80
73572;DHT22;61854;48.510;-2.770;2023-02-28T07:01:14;4.80;72.40
73572;DHT22;61854;48.510;-2.770;2023-02-28T07:03:40;4.90;72.30
73572;DHT22;61854;48.510;-2.770;2023-02-28T07:06:06;4.90;71.90
73572;DHT22;61854;48.510;-2.770;2023-02-28T07:08:33;4.90;71.40
73572;DHT22;61854;48.510;-2.770;2023-02-28T07:10:58;5.00;71.10
73572;DHT22;61854;48.510;-2.770;2023-02-28T07:13:24;5.00;70.80
73572;DHT22;61854;48.510;-2.770;2023-02-28T07:16:10;5.00;71.10
73572;DHT22;61854;48.510;-2.770;2023-02-28T07:18:37;5.10;71.30
73572;DHT22;61854;48.510;-2.770;2023-02-28T07:21:05;5.20;70.90
73572;DHT22;61854;48.510;-2.770;2023-02-28T07:23:34;5.10;70.80
73572;DHT22;61854;48.510;-2.770;2023-02-28T07:26:00;5.20;70.60
73572;DHT22;61854;48.510;-2.770;2023-02-28T07:28:25;5.20;70.60
73572;DHT22;61854;48.510;-2.770;2023-02-28T07:30:51;5.20;70.40
73572;DHT22;61854;48.510;-2.770;2023-02-28T07:33:17;5.20;70.60
73572;DHT22;61854;48.510;-2.770;2023-02-28T07:35:43;5.20;70.30
73572;DHT22;61854;48.510;-2.770;2023-02-28T07:38:09;5.30;70.70
73572;DHT22;61854;48.510;-2.770;2023-02-28T07:40:35;5.30;70.10
73572;DHT22;61854;48.510;-2.770;2023-02-28T07:43:03;5.40;69.90
73572;DHT22;61854;48.510;-2.770;2023-02-28T07:45:30;5.40;69.70
73572;DHT22;61854;48.510;-2.770;2023-02-28T07:47:57;5.50;69.70
73572;DHT22;61854;48.510;-2.770;2023-02-28T07:50:23;5.50;69.60
73572;DHT22;61854;48.510;-2.770;2023-02-28T07:52:49;5.60;69.80
73572;DHT22;61854;48.510;-2.770;2023-02-28T07:55:14;5.60;69.50
73572;DHT22;61854;48.510;-2.770;2023-02-28T07:57:42;5.70;69.30
73572;DHT22;61854;48.510;-2.770;2023-02-28T08:00:10;5.80;69.20
73572;DHT22;61854;48.510;-2.770;2023-02-28T08:02:36;5.90;69.00
73572;DHT22;61854;48.510;-2.770;2023-02-28T08:05:02;6.00;68.50
73572;DHT22;61854;48.510;-2.770;2023-02-28T08:07:28;6.00;68.50
73572;DHT22;61854;48.510;-2.770;2023-02-28T08:09:54;6.00;68.30
73572;DHT22;61854;48.510;-2.770;2023-02-28T08:12:20;6.00;68.30
73572;DHT22;61854;48.510;-2.770;2023-02-28T08:14:46;6.00;68.20
73572;DHT22;61854;48.510;-2.770;2023-02-28T08:17:11;6.00;68.10
73572;DHT22;61854;48.510;-2.770;2023-02-28T08:19:37;6.00;68.00
73572;DHT22;61854;48.510;-2.770;2023-02-28T08:22:03;6.00;68.40
73572;DHT22;61854;48.510;-2.770;2023-02-28T08:24:29;6.00;68.60
73572;DHT22;61854;48.510;-2.770;2023-02-28T08:26:56;6.10;68.60
73572;DHT22;61854;48.510;-2.770;2023-02-28T08:29:22;6.00;68.40
73572;DHT22;61854;48.510;-2.770;2023-02-28T08:31:48;6.00;68.50
73572;DHT22;61854;48.510;-2.770;2023-02-28T08:34:15;6.20;68.40
73572;DHT22;61854;48.510;-2.770;2023-02-28T08:36:41;6.60;67.70
73572;DHT22;61854;48.510;-2.770;2023-02-28T08:39:09;7.00;66.10
73572;DHT22;61854;48.510;-2.770;2023-02-28T08:41:35;7.50;64.90
73572;DHT22;61854;48.510;-2.770;2023-02-28T08:44:01;7.90;63.10
73572;DHT22;61854;48.510;-2.770;2023-02-28T08:46:27;8.00;61.70
73572;DHT22;61854;48.510;-2.770;2023-02-28T08:48:54;8.00;61.00
73572;DHT22;61854;48.510;-2.770;2023-02-28T08:51:21;7.70;61.70
73572;DHT22;61854;48.510;-2.770;2023-02-28T08:53:55;7.40;62.90
73572;DHT22;61854;48.510;-2.770;2023-02-28T08:56:22;7.30;63.80
73572;DHT22;61854;48.510;-2.770;2023-02-28T08:58:50;7.20;64.40
73572;DHT22;61854;48.510;-2.770;2023-02-28T09:01:21;7.00;64.50
73572;DHT22;61854;48.510;-2.770;2023-02-28T09:03:48;6.90;65.10
73572;DHT22;61854;48.510;-2.770;2023-02-28T09:06:16;7.00;65.50
73572;DHT22;61854;48.510;-2.770;2023-02-28T09:08:42;7.30;65.20
73572;DHT22;61854;48.510;-2.770;2023-02-28T09:11:08;7.40;64.70
73572;DHT22;61854;48.510;-2.770;2023-02-28T09:13:34;7.30;64.90
73572;DHT22;61854;48.510;-2.770;2023-02-28T09:16:04;7.30;65.40
73572;DHT22;61854;48.510;-2.770;2023-02-28T09:18:30;7.20;65.40
73572;DHT22;61854;48.510;-2.770;2023-02-28T09:20:56;7.20;66.00
73572;DHT22;61854;48.510;-2.770;2023-02-28T09:23:23;7.00;66.50
73572;DHT22;61854;48.510;-2.770;2023-02-28T09:25:52;6.90;67.10
73572;DHT22;61854;48.510;-2.770;2023-02-28T09:28:18;6.90;68.00
73572;DHT22;61854;48.510;-2.770;2023-02-28T09:30:46;7.00;68.60
73572;DHT22;61854;48.510;-2.770;2023-02-28T09:33:16;7.00;68.60
73572;DHT22;61854;48.510;-2.770;2023-02-28T09:35:42;7.10;68.50
73572;DHT22;61854;48.510;-2.770;2023-02-28T09:38:09;7.20;68.20
73572;DHT22;61854;48.510;-2.770;2023-02-28T09:40:37;7.30;67.70
73572;DHT22;61854;48.510;-2.770;2023-02-28T09:43:05;7.30;67.80
73572;DHT22;61854;48.510;-2.770;2023-02-28T09:45:34;7.30;66.50
73572;DHT22;61854;48.510;-2.770;2023-02-28T09:48:12;7.20;67.00
73572;DHT22;61854;48.510;-2.770;2023-02-28T09:50:49;7.30;67.50
73572;DHT22;61854;48.510;-2.770;2023-02-28T09:53:32;7.40;67.90
73572;DHT22;61854;48.510;-2.770;2023-02-28T10:01:17;7.60;66.60
73572;DHT22;61854;48.510;-2.770;2023-02-28T10:04:13;7.60;66.50
73572;DHT22;61854;48.510;-2.770;2023-02-28T10:06:51;7.50;66.60
73572;DHT22;61854;48.510;-2.770;2023-02-28T10:09:23;7.60;66.80
73572;DHT22;61854;48.510;-2.770;2023-02-28T10:11:56;7.60;66.80
73572;DHT22;61854;48.510;-2.770;2023-02-28T10:14:25;7.60;66.90
73572;DHT22;61854;48.510;-2.770;2023-02-28T10:19:49;7.70;66.70
73572;DHT22;61854;48.510;-2.770;2023-02-28T10:22:25;7.70;66.70
73572;DHT22;61854;48.510;-2.770;2023-02-28T10:24:54;7.70;66.40
73572;DHT22;61854;48.510;-2.770;2023-02-28T10:27:23;7.80;66.70
73572;DHT22;61854;48.510;-2.770;2023-02-28T10:29:55;7.80;67.10
73572;DHT22;61854;48.510;-2.770;2023-02-28T10:32:24;7.80;66.70
73572;DHT22;61854;48.510;-2.770;2023-02-28T10:35:16;7.80;66.80
73572;DHT22;61854;48.510;-2.770;2023-02-28T10:37:45;7.80;66.80
73572;DHT22;61854;48.510;-2.770;2023-02-28T10:42:56;7.90;66.60
73572;DHT22;61854;48.510;-2.770;2023-02-28T10:45:22;7.90;65.90
73572;DHT22;61854;48.510;-2.770;2023-02-28T10:47:57;7.80;65.50
73572;DHT22;61854;48.510;-2.770;2023-02-28T10:50:50;7.70;65.90
73572;DHT22;61854;48.510;-2.770;2023-02-28T11:01:23;7.60;68.00
73572;DHT22;61854;48.510;-2.770;2023-02-28T11:03:51;7.50;68.50
73572;DHT22;61854;48.510;-2.770;2023-02-28T11:08:46;7.70;69.00
73572;DHT22;61854;48.510;-2.770;2023-02-28T11:11:13;7.80;67.90
73572;DHT22;61854;48.510;-2.770;2023-02-28T11:13:39;7.90;67.40
73572;DHT22;61854;48.510;-2.770;2023-02-28T11:16:11;7.80;67.80
73572;DHT22;61854;48.510;-2.770;2023-02-28T11:18:46;7.80;67.50
73572;DHT22;61854;48.510;-2.770;2023-02-28T11:21:26;7.80;67.70
73572;DHT22;61854;48.510;-2.770;2023-02-28T11:24:01;7.70;68.10
73572;DHT22;61854;48.510;-2.770;2023-02-28T11:26:56;7.80;68.30
73572;DHT22;61854;48.510;-2.770;2023-02-28T11:32:18;7.80;67.60
73572;DHT22;61854;48.510;-2.770;2023-02-28T11:34:45;7.90;66.10
73572;DHT22;61854;48.510;-2.770;2023-02-28T11:37:17;8.00;67.30
73572;DHT22;61854;48.510;-2.770;2023-02-28T11:39:44;8.00;66.00
73572;DHT22;61854;48.510;-2.770;2023-02-28T11:42:38;8.10;65.80
73572;DHT22;61854;48.510;-2.770;2023-02-28T11:45:42;8.10;66.60
73572;DHT22;61854;48.510;-2.770;2023-02-28T11:48:20;8.00;68.20
73572;DHT22;61854;48.510;-2.770;2023-02-28T11:54:12;8.20;68.10
73572;DHT22;61854;48.510;-2.770;2023-02-28T11:56:49;8.20;68.50
73572;DHT22;61854;48.510;-2.770;2023-02-28T12:04:47;8.20;65.60
73572;DHT22;61854;48.510;-2.770;2023-02-28T12:07:23;8.20;65.80
73572;DHT22;61854;48.510;-2.770;2023-02-28T12:10:11;8.10;66.40
73572;DHT22;61854;48.510;-2.770;2023-02-28T12:18:37;8.40;67.10
73572;DHT22;61854;48.510;-2.770;2023-02-28T12:21:22;8.60;66.90
73572;DHT22;61854;48.510;-2.770;2023-02-28T12:32:07;8.70;66.00
73572;DHT22;61854;48.510;-2.770;2023-02-28T12:34:42;8.60;67.20
73572;DHT22;61854;48.510;-2.770;2023-02-28T12:37:27;8.70;68.30
73572;DHT22;61854;48.510;-2.770;2023-02-28T12:40:14;8.80;67.40
73572;DHT22;61854;48.510;-2.770;2023-02-28T12:42:48;8.90;66.90
73572;DHT22;61854;48.510;-2.770;2023-02-28T12:45:27;9.00;66.90
73572;DHT22;61854;48.510;-2.770;2023-02-28T12:48:00;9.20;66.20
73572;DHT22;61854;48.510;-2.770;2023-02-28T12:50:27;9.30;65.70
73572;DHT22;61854;48.510;-2.770;2023-02-28T12:58:48;9.10;68.60
73572;DHT22;61854;48.510;-2.770;2023-02-28T13:01:30;8.90;68.70
73572;DHT22;61854;48.510;-2.770;2023-02-28T13:09:32;8.90;69.60
73572;DHT22;61854;48.510;-2.770;2023-02-28T13:11:58;8.90;70.00
73572;DHT22;61854;48.510;-2.770;2023-02-28T13:14:37;9.10;71.00
73572;DHT22;61854;48.510;-2.770;2023-02-28T13:19:44;9.70;68.00
73572;DHT22;61854;48.510;-2.770;2023-02-28T13:24:57;9.40;67.00
73572;DHT22;61854;48.510;-2.770;2023-02-28T13:27:40;9.10;68.10
73572;DHT22;61854;48.510;-2.770;2023-02-28T13:33:36;8.90;70.00
73572;DHT22;61854;48.510;-2.770;2023-02-28T14:03:11;8.30;76.60
73572;DHT22;61854;48.510;-2.770;2023-02-28T14:05:40;8.30;77.60
73572;DHT22;61854;48.510;-2.770;2023-02-28T14:08:14;8.40;78.30
73572;DHT22;61854;48.510;-2.770;2023-02-28T14:10:47;8.40;78.30
73572;DHT22;61854;48.510;-2.770;2023-02-28T14:13:45;8.50;77.00
73572;DHT22;61854;48.510;-2.770;2023-02-28T14:16:35;8.90;76.90
73572;DHT22;61854;48.510;-2.770;2023-02-28T14:19:21;9.20;74.40
73572;DHT22;61854;48.510;-2.770;2023-02-28T14:37:42;9.30;73.50
73572;DHT22;61854;48.510;-2.770;2023-02-28T14:40:15;9.20;74.30
73572;DHT22;61854;48.510;-2.770;2023-02-28T14:42:47;9.10;74.70
73572;DHT22;61854;48.510;-2.770;2023-02-28T14:45:21;8.90;75.20
73572;DHT22;61854;48.510;-2.770;2023-02-28T14:47:47;8.80;75.70
73572;DHT22;61854;48.510;-2.770;2023-02-28T14:50:23;8.70;76.20
73572;DHT22;61854;48.510;-2.770;2023-02-28T14:52:54;8.60;76.90
73572;DHT22;61854;48.510;-2.770;2023-02-28T14:55:28;8.50;77.50
73572;DHT22;61854;48.510;-2.770;2023-02-28T14:57:56;8.50;78.30
73572;DHT22;61854;48.510;-2.770;2023-02-28T15:00:26;8.40;79.00
73572;DHT22;61854;48.510;-2.770;2023-02-28T15:02:53;8.40;79.80
73572;DHT22;61854;48.510;-2.770;2023-02-28T15:05:23;8.50;79.70
73572;DHT22;61854;48.510;-2.770;2023-02-28T15:08:05;8.50;79.60
73572;DHT22;61854;48.510;-2.770;2023-02-28T15:10:32;8.60;79.50
73572;DHT22;61854;48.510;-2.770;2023-02-28T15:13:05;8.60;79.80
73572;DHT22;61854;48.510;-2.770;2023-02-28T15:15:51;8.70;80.40
73572;DHT22;61854;48.510;-2.770;2023-02-28T15:18:41;8.90;81.20
73572;DHT22;61854;48.510;-2.770;2023-02-28T15:21:19;9.20;79.20
73572;DHT22;61854;48.510;-2.770;2023-02-28T15:24:11;9.20;79.10
73572;DHT22;61854;48.510;-2.770;2023-02-28T15:26:43;9.20;79.30
73572;DHT22;61854;48.510;-2.770;2023-02-28T15:29:20;9.10;80.60
73572;DHT22;61854;48.510;-2.770;2023-02-28T15:32:00;8.90;81.70
73572;DHT22;61854;48.510;-2.770;2023-02-28T15:34:37;8.70;81.70
73572;DHT22;61854;48.510;-2.770;2023-02-28T15:37:28;8.60;82.60
73572;DHT22;61854;48.510;-2.770;2023-02-28T15:39:54;8.40;83.00
73572;DHT22;61854;48.510;-2.770;2023-02-28T15:42:22;8.30;84.30
73572;DHT22;61854;48.510;-2.770;2023-02-28T15:44:49;8.20;84.80
73572;DHT22;61854;48.510;-2.770;2023-02-28T15:47:23;8.00;85.40
73572;DHT22;61854;48.510;-2.770;2023-02-28T15:49:52;8.00;86.50
73572;DHT22;61854;48.510;-2.770;2023-02-28T15:52:29;8.00;87.20
73572;DHT22;61854;48.510;-2.770;2023-02-28T15:54:57;7.90;88.00
73572;DHT22;61854;48.510;-2.770;2023-02-28T15:57:26;7.90;86.20
73572;DHT22;61854;48.510;-2.770;2023-02-28T15:59:55;7.80;85.10
73572;DHT22;61854;48.510;-2.770;2023-02-28T16:02:31;7.80;84.80
73572;DHT22;61854;48.510;-2.770;2023-02-28T16:05:20;7.80;84.70
73572;DHT22;61854;48.510;-2.770;2023-02-28T16:07:43;7.80;84.20
73572;DHT22;61854;48.510;-2.770;2023-02-28T16:10:11;7.90;83.30
73572;DHT22;61854;48.510;-2.770;2023-02-28T16:12:37;7.80;83.40
73572;DHT22;61854;48.510;-2.770;2023-02-28T16:17:48;7.90;82.80
73572;DHT22;61854;48.510;-2.770;2023-02-28T16:20:30;7.80;82.70
73572;DHT22;61854;48.510;-2.770;2023-02-28T16:22:56;7.80;82.40
73572;DHT22;61854;48.510;-2.770;2023-02-28T16:25:33;7.80;82.30
73572;DHT22;61854;48.510;-2.770;2023-02-28T16:27:59;7.80;82.60
73572;DHT22;61854;48.510;-2.770;2023-02-28T16:30:27;7.80;82.20
73572;DHT22;61854;48.510;-2.770;2023-02-28T16:32:55;7.80;82.50
73572;DHT22;61854;48.510;-2.770;2023-02-28T16:35:21;7.70;82.60
73572;DHT22;61854;48.510;-2.770;2023-02-28T16:37:48;7.70;83.40
73572;DHT22;61854;48.510;-2.770;2023-02-28T16:40:24;7.70;83.10
73572;DHT22;61854;48.510;-2.770;2023-02-28T16:42:53;7.70;82.80
73572;DHT22;61854;48.510;-2.770;2023-02-28T16:45:25;7.60;83.40
73572;DHT22;61854;48.510;-2.770;2023-02-28T16:47:51;7.60;83.20
73572;DHT22;61854;48.510;-2.770;2023-02-28T16:50:23;7.60;83.00
73572;DHT22;61854;48.510;-2.770;2023-02-28T16:52:49;7.50;83.20
73572;DHT22;61854;48.510;-2.770;2023-02-28T16:55:18;7.50;83.60
73572;DHT22;61854;48.510;-2.770;2023-02-28T16:57:47;7.50;84.30
73572;DHT22;61854;48.510;-2.770;2023-02-28T17:00:15;7.50;84.80
73572;DHT22;61854;48.510;-2.770;2023-02-28T17:02:41;7.50;85.30
73572;DHT22;61854;48.510;-2.770;2023-02-28T17:05:08;7.40;85.70
73572;DHT22;61854;48.510;-2.770;2023-02-28T17:07:34;7.50;86.50
73572;DHT22;61854;48.510;-2.770;2023-02-28T17:09:59;7.50;85.90
73572;DHT22;61854;48.510;-2.770;2023-02-28T17:12:33;7.50;86.10
73572;DHT22;61854;48.510;-2.770;2023-02-28T17:14:59;7.50;85.80
73572;DHT22;61854;48.510;-2.770;2023-02-28T17:17:25;7.50;85.20
73572;DHT22;61854;48.510;-2.770;2023-02-28T17:19:51;7.50;85.20
73572;DHT22;61854;48.510;-2.770;2023-02-28T17:22:16;7.50;88.20
73572;DHT22;61854;48.510;-2.770;2023-02-28T17:24:42;7.40;91.20
73572;DHT22;61854;48.510;-2.770;2023-02-28T17:27:11;7.30;92.00
73572;DHT22;61854;48.510;-2.770;2023-02-28T17:29:37;7.10;92.60
73572;DHT22;61854;48.510;-2.770;2023-02-28T17:32:03;7.10;92.80
73572;DHT22;61854;48.510;-2.770;2023-02-28T17:34:29;7.00;93.00
73572;DHT22;61854;48.510;-2.770;2023-02-28T17:36:55;7.00;93.00
73572;DHT22;61854;48.510;-2.770;2023-02-28T17:39:20;7.00;92.80
73572;DHT22;61854;48.510;-2.770;2023-02-28T17:41:56;7.10;92.50
73572;DHT22;61854;48.510;-2.770;2023-02-28T17:44:23;7.10;92.10
73572;DHT22;61854;48.510;-2.770;2023-02-28T17:46:53;7.10;91.90
73572;DHT22;61854;48.510;-2.770;2023-02-28T17:49:20;7.10;91.50
73572;DHT22;61854;48.510;-2.770;2023-02-28T17:51:46;7.20;91.20
73572;DHT22;61854;48.510;-2.770;2023-02-28T17:54:12;7.20;91.00
73572;DHT22;61854;48.510;-2.770;2023-02-28T17:56:39;7.20;90.90
73572;DHT22;61854;48.510;-2.770;2023-02-28T17:59:05;7.20;90.40
73572;DHT22;61854;48.510;-2.770;2023-02-28T18:01:33;7.20;90.20
73572;DHT22;61854;48.510;-2.770;2023-02-28T18:03:59;7.20;90.20